Etusivu
METAR-TAF:

METAR-TAF

Lentoasemat :

Harbor Springs Municipal Airport

Harbor Springs, Michigan, Yhdysvallat

Leveyspiiri: 45-25-32N, Pituuspiiri: 084-54-48W, korkeus merenpinnasta: 209 m

Tämänhetkinen sää

Tämä raportti tehtiin 23 minuuttia sitten, kello 04.15 UTC
Tuuli 7 kn lännestä/luoteesta puuskistuen 18 kn:hen
Lämpötila -5°C
Kosteus 63%
Ilmanpaine 1013 hPa
Näkyvyys: 16.1 km
Pilvistä 3300 ft:n korkeudessa

METAR: KMGN 290415Z AUTO 29007G18KT 10SM OVC033 M05/M11 A2992 RMK AO2 T10541108

Aika: 23:38 (04:38 UTC)


TAF: puuttuu

Säähavainnot ja -ennusteet yli 4000 lentoasemalta (METAR- ja TAF-raportit).

Käytössä olevat sääasemat on merkitty karttaan keltaisilla ja punaisilla pisteillä.

Aseta hiiri pisteen päälle nähdäksesi sääaseman nimen.

Klikkaa sitten nähdäksesi säähavainnot ja -ennusteet.

Kartan vaihtaminen: klikkaa mustalla rastilla varustettuja vihreitä pisteitä, niin voit zoomata sisään; viivalla varustettua vihreää pistettä, niin voit zoomata ulos tai vihreitä nuolia, niin pääset viereisille kartoille.


METAR-TAF: